sensor_id;sensor_type;location;lat;lon;timestamp;P1;durP1;ratioP1;P2;durP2;ratioP2
11524;SDS011;5819;49.648;8.330;2023-04-27T00:02:21;7.22;;;3.95;;
11524;SDS011;5819;49.648;8.330;2023-04-27T00:04:51;12.10;;;4.10;;
11524;SDS011;5819;49.648;8.330;2023-04-27T00:07:19;5.97;;;3.30;;
11524;SDS011;5819;49.648;8.330;2023-04-27T00:09:47;7.05;;;3.90;;
11524;SDS011;5819;49.648;8.330;2023-04-27T00:12:14;6.40;;;3.92;;
11524;SDS011;5819;49.648;8.330;2023-04-27T00:14:42;5.78;;;4.28;;
11524;SDS011;5819;49.648;8.330;2023-04-27T00:17:10;7.25;;;3.95;;
11524;SDS011;5819;49.648;8.330;2023-04-27T00:19:38;8.60;;;4.22;;
11524;SDS011;5819;49.648;8.330;2023-04-27T00:22:08;8.27;;;4.18;;
11524;SDS011;5819;49.648;8.330;2023-04-27T00:24:36;9.35;;;4.10;;
11524;SDS011;5819;49.648;8.330;2023-04-27T00:27:04;7.45;;;4.18;;
11524;SDS011;5819;49.648;8.330;2023-04-27T00:29:32;7.30;;;4.75;;
11524;SDS011;5819;49.648;8.330;2023-04-27T00:32:00;7.57;;;4.35;;
11524;SDS011;5819;49.648;8.330;2023-04-27T00:34:27;8.52;;;4.78;;
11524;SDS011;5819;49.648;8.330;2023-04-27T00:36:56;6.53;;;4.82;;
11524;SDS011;5819;49.648;8.330;2023-04-27T00:39:25;7.53;;;3.72;;
11524;SDS011;5819;49.648;8.330;2023-04-27T00:41:53;7.88;;;5.05;;
11524;SDS011;5819;49.648;8.330;2023-04-27T00:44:21;9.65;;;4.90;;
11524;SDS011;5819;49.648;8.330;2023-04-27T00:46:51;10.18;;;4.55;;
11524;SDS011;5819;49.648;8.330;2023-04-27T00:49:21;7.25;;;4.40;;
11524;SDS011;5819;49.648;8.330;2023-04-27T00:51:50;9.93;;;4.80;;
11524;SDS011;5819;49.648;8.330;2023-04-27T00:54:21;6.47;;;4.15;;
11524;SDS011;5819;49.648;8.330;2023-04-27T00:56:51;9.80;;;4.85;;
11524;SDS011;5819;49.648;8.330;2023-04-27T00:59:20;7.47;;;4.20;;
11524;SDS011;5819;49.648;8.330;2023-04-27T01:01:50;8.77;;;4.25;;
11524;SDS011;5819;49.648;8.330;2023-04-27T01:04:19;6.47;;;4.75;;
11524;SDS011;5819;49.648;8.330;2023-04-27T01:06:47;9.75;;;4.43;;
11524;SDS011;5819;49.648;8.330;2023-04-27T01:09:15;8.80;;;4.55;;
11524;SDS011;5819;49.648;8.330;2023-04-27T01:11:48;6.95;;;4.22;;
11524;SDS011;5819;49.648;8.330;2023-04-27T01:14:18;8.85;;;4.88;;
11524;SDS011;5819;49.648;8.330;2023-04-27T01:16:46;6.90;;;4.80;;
11524;SDS011;5819;49.648;8.330;2023-04-27T01:19:14;7.47;;;4.28;;
11524;SDS011;5819;49.648;8.330;2023-04-27T01:21:42;9.85;;;4.68;;
11524;SDS011;5819;49.648;8.330;2023-04-27T01:24:11;8.15;;;4.45;;
11524;SDS011;5819;49.648;8.330;2023-04-27T01:26:38;8.23;;;4.20;;
11524;SDS011;5819;49.648;8.330;2023-04-27T01:29:08;7.65;;;5.07;;
11524;SDS011;5819;49.648;8.330;2023-04-27T01:31:37;7.25;;;4.38;;
11524;SDS011;5819;49.648;8.330;2023-04-27T01:34:05;10.70;;;4.70;;
11524;SDS011;5819;49.648;8.330;2023-04-27T01:36:33;6.82;;;4.47;;
11524;SDS011;5819;49.648;8.330;2023-04-27T01:39:01;8.05;;;4.50;;
11524;SDS011;5819;49.648;8.330;2023-04-27T01:41:31;8.57;;;4.20;;
11524;SDS011;5819;49.648;8.330;2023-04-27T01:43:58;11.68;;;5.00;;
11524;SDS011;5819;49.648;8.330;2023-04-27T01:46:27;7.30;;;4.65;;
11524;SDS011;5819;49.648;8.330;2023-04-27T01:48:55;11.05;;;5.32;;
11524;SDS011;5819;49.648;8.330;2023-04-27T01:51:22;9.43;;;5.10;;
11524;SDS011;5819;49.648;8.330;2023-04-27T01:53:50;6.90;;;4.85;;
11524;SDS011;5819;49.648;8.330;2023-04-27T01:56:18;7.95;;;4.13;;
11524;SDS011;5819;49.648;8.330;2023-04-27T01:58:48;7.25;;;4.70;;
11524;SDS011;5819;49.648;8.330;2023-04-27T02:01:16;7.38;;;4.80;;
11524;SDS011;5819;49.648;8.330;2023-04-27T02:03:44;10.95;;;4.97;;
11524;SDS011;5819;49.648;8.330;2023-04-27T02:06:12;7.47;;;4.75;;
11524;SDS011;5819;49.648;8.330;2023-04-27T02:08:40;9.68;;;5.15;;
11524;SDS011;5819;49.648;8.330;2023-04-27T02:11:08;8.18;;;4.97;;
11524;SDS011;5819;49.648;8.330;2023-04-27T02:13:36;13.57;;;4.88;;
11524;SDS011;5819;49.648;8.330;2023-04-27T02:16:06;10.27;;;5.93;;
11524;SDS011;5819;49.648;8.330;2023-04-27T02:18:34;9.20;;;5.00;;
11524;SDS011;5819;49.648;8.330;2023-04-27T02:21:06;7.40;;;4.72;;
11524;SDS011;5819;49.648;8.330;2023-04-27T02:23:36;10.85;;;4.72;;
11524;SDS011;5819;49.648;8.330;2023-04-27T02:26:03;8.70;;;5.30;;
11524;SDS011;5819;49.648;8.330;2023-04-27T02:28:31;8.93;;;5.40;;
11524;SDS011;5819;49.648;8.330;2023-04-27T02:30:59;11.38;;;5.45;;
11524;SDS011;5819;49.648;8.330;2023-04-27T02:33:29;10.68;;;5.47;;
11524;SDS011;5819;49.648;8.330;2023-04-27T02:35:58;10.57;;;5.22;;
11524;SDS011;5819;49.648;8.330;2023-04-27T02:38:28;7.90;;;5.35;;
11524;SDS011;5819;49.648;8.330;2023-04-27T02:40:55;7.82;;;5.65;;
11524;SDS011;5819;49.648;8.330;2023-04-27T02:43:25;10.10;;;5.72;;
11524;SDS011;5819;49.648;8.330;2023-04-27T02:45:53;9.98;;;5.78;;
11524;SDS011;5819;49.648;8.330;2023-04-27T02:48:21;10.93;;;4.97;;
11524;SDS011;5819;49.648;8.330;2023-04-27T02:50:51;9.40;;;5.80;;
11524;SDS011;5819;49.648;8.330;2023-04-27T02:53:18;8.20;;;4.90;;
11524;SDS011;5819;49.648;8.330;2023-04-27T02:55:46;8.65;;;5.32;;
11524;SDS011;5819;49.648;8.330;2023-04-27T02:58:14;8.35;;;5.22;;
11524;SDS011;5819;49.648;8.330;2023-04-27T03:00:42;8.68;;;5.43;;
11524;SDS011;5819;49.648;8.330;2023-04-27T03:03:11;9.75;;;5.75;;
11524;SDS011;5819;49.648;8.330;2023-04-27T03:05:39;10.13;;;5.55;;
11524;SDS011;5819;49.648;8.330;2023-04-27T03:08:08;8.77;;;5.32;;
11524;SDS011;5819;49.648;8.330;2023-04-27T03:10:36;7.97;;;5.68;;
11524;SDS011;5819;49.648;8.330;2023-04-27T03:13:04;8.73;;;6.05;;
11524;SDS011;5819;49.648;8.330;2023-04-27T03:15:32;11.48;;;6.13;;
11524;SDS011;5819;49.648;8.330;2023-04-27T03:18:01;9.27;;;6.63;;
11524;SDS011;5819;49.648;8.330;2023-04-27T03:20:28;11.82;;;5.82;;
11524;SDS011;5819;49.648;8.330;2023-04-27T03:22:57;11.25;;;6.00;;
11524;SDS011;5819;49.648;8.330;2023-04-27T03:25:26;8.52;;;5.72;;
11524;SDS011;5819;49.648;8.330;2023-04-27T03:27:54;13.07;;;5.82;;
11524;SDS011;5819;49.648;8.330;2023-04-27T03:30:22;10.10;;;5.85;;
11524;SDS011;5819;49.648;8.330;2023-04-27T03:32:49;9.35;;;5.63;;
11524;SDS011;5819;49.648;8.330;2023-04-27T03:35:17;9.55;;;6.25;;
11524;SDS011;5819;49.648;8.330;2023-04-27T03:37:49;8.80;;;5.38;;
11524;SDS011;5819;49.648;8.330;2023-04-27T03:40:16;10.70;;;6.32;;
11524;SDS011;5819;49.648;8.330;2023-04-27T03:42:46;9.13;;;6.70;;
11524;SDS011;5819;49.648;8.330;2023-04-27T03:45:15;11.10;;;6.45;;
11524;SDS011;5819;49.648;8.330;2023-04-27T03:47:44;9.32;;;6.47;;
11524;SDS011;5819;49.648;8.330;2023-04-27T03:50:13;10.60;;;6.38;;
11524;SDS011;5819;49.648;8.330;2023-04-27T03:52:41;11.48;;;6.32;;
11524;SDS011;5819;49.648;8.330;2023-04-27T03:55:10;11.30;;;6.78;;
11524;SDS011;5819;49.648;8.330;2023-04-27T03:57:40;10.30;;;7.03;;
11524;SDS011;5819;49.648;8.330;2023-04-27T04:00:11;8.80;;;6.45;;
11524;SDS011;5819;49.648;8.330;2023-04-27T04:02:41;10.38;;;6.88;;
11524;SDS011;5819;49.648;8.330;2023-04-27T04:05:09;11.15;;;6.97;;
11524;SDS011;5819;49.648;8.330;2023-04-27T04:07:40;9.73;;;6.20;;
11524;SDS011;5819;49.648;8.330;2023-04-27T04:10:10;11.05;;;5.93;;
11524;SDS011;5819;49.648;8.330;2023-04-27T04:12:38;13.77;;;6.90;;
11524;SDS011;5819;49.648;8.330;2023-04-27T04:15:06;18.90;;;7.10;;
11524;SDS011;5819;49.648;8.330;2023-04-27T04:17:35;8.32;;;6.50;;
11524;SDS011;5819;49.648;8.330;2023-04-27T04:20:03;11.15;;;6.35;;
11524;SDS011;5819;49.648;8.330;2023-04-27T04:22:36;11.43;;;6.80;;
11524;SDS011;5819;49.648;8.330;2023-04-27T04:25:05;9.48;;;5.93;;
11524;SDS011;5819;49.648;8.330;2023-04-27T04:27:33;11.73;;;6.85;;
11524;SDS011;5819;49.648;8.330;2023-04-27T04:30:01;11.10;;;6.65;;
11524;SDS011;5819;49.648;8.330;2023-04-27T04:32:33;9.20;;;6.10;;
11524;SDS011;5819;49.648;8.330;2023-04-27T04:35:06;10.93;;;6.93;;
11524;SDS011;5819;49.648;8.330;2023-04-27T04:37:34;10.60;;;6.20;;
11524;SDS011;5819;49.648;8.330;2023-04-27T04:40:03;10.80;;;6.43;;
11524;SDS011;5819;49.648;8.330;2023-04-27T04:42:35;11.10;;;6.72;;
11524;SDS011;5819;49.648;8.330;2023-04-27T04:45:05;12.35;;;6.68;;
11524;SDS011;5819;49.648;8.330;2023-04-27T04:47:34;10.93;;;6.78;;
11524;SDS011;5819;49.648;8.330;2023-04-27T04:50:02;9.45;;;6.40;;
11524;SDS011;5819;49.648;8.330;2023-04-27T04:52:32;9.15;;;5.95;;
11524;SDS011;5819;49.648;8.330;2023-04-27T04:54:59;9.20;;;6.60;;
11524;SDS011;5819;49.648;8.330;2023-04-27T04:57:28;8.00;;;6.43;;
11524;SDS011;5819;49.648;8.330;2023-04-27T04:59:56;9.48;;;6.20;;
11524;SDS011;5819;49.648;8.330;2023-04-27T05:02:24;13.07;;;6.45;;
11524;SDS011;5819;49.648;8.330;2023-04-27T05:04:52;9.73;;;6.47;;
11524;SDS011;5819;49.648;8.330;2023-04-27T05:07:22;12.57;;;6.90;;
11524;SDS011;5819;49.648;8.330;2023-04-27T05:09:52;9.55;;;6.72;;
11524;SDS011;5819;49.648;8.330;2023-04-27T05:12:20;12.15;;;6.05;;
11524;SDS011;5819;49.648;8.330;2023-04-27T05:14:48;9.80;;;6.32;;
11524;SDS011;5819;49.648;8.330;2023-04-27T05:17:15;8.80;;;7.05;;
11524;SDS011;5819;49.648;8.330;2023-04-27T05:19:43;8.18;;;6.43;;
11524;SDS011;5819;49.648;8.330;2023-04-27T05:22:11;15.38;;;6.45;;
11524;SDS011;5819;49.648;8.330;2023-04-27T05:24:39;9.65;;;6.80;;
11524;SDS011;5819;49.648;8.330;2023-04-27T05:27:09;9.82;;;6.35;;
11524;SDS011;5819;49.648;8.330;2023-04-27T05:29:39;9.70;;;6.55;;
11524;SDS011;5819;49.648;8.330;2023-04-27T05:32:07;10.15;;;5.95;;
11524;SDS011;5819;49.648;8.330;2023-04-27T05:34:35;9.27;;;6.45;;
11524;SDS011;5819;49.648;8.330;2023-04-27T05:37:03;11.20;;;6.72;;
11524;SDS011;5819;49.648;8.330;2023-04-27T05:39:31;9.82;;;6.70;;
11524;SDS011;5819;49.648;8.330;2023-04-27T05:41:59;9.45;;;6.88;;
11524;SDS011;5819;49.648;8.330;2023-04-27T05:44:29;8.57;;;5.78;;
11524;SDS011;5819;49.648;8.330;2023-04-27T05:46:57;12.80;;;6.07;;
11524;SDS011;5819;49.648;8.330;2023-04-27T05:49:24;9.75;;;6.55;;
11524;SDS011;5819;49.648;8.330;2023-04-27T05:51:53;9.30;;;6.28;;
11524;SDS011;5819;49.648;8.330;2023-04-27T05:54:22;9.98;;;6.75;;
11524;SDS011;5819;49.648;8.330;2023-04-27T05:56:54;9.02;;;6.18;;
11524;SDS011;5819;49.648;8.330;2023-04-27T05:59:24;12.85;;;6.60;;
11524;SDS011;5819;49.648;8.330;2023-04-27T06:01:54;10.82;;;5.85;;
11524;SDS011;5819;49.648;8.330;2023-04-27T06:04:22;8.50;;;6.53;;
11524;SDS011;5819;49.648;8.330;2023-04-27T06:06:50;9.30;;;6.25;;
11524;SDS011;5819;49.648;8.330;2023-04-27T06:09:18;10.23;;;6.35;;
11524;SDS011;5819;49.648;8.330;2023-04-27T06:11:46;8.65;;;6.38;;
11524;SDS011;5819;49.648;8.330;2023-04-27T06:14:13;11.35;;;6.78;;
11524;SDS011;5819;49.648;8.330;2023-04-27T06:16:41;10.63;;;6.82;;
11524;SDS011;5819;49.648;8.330;2023-04-27T06:19:11;14.02;;;6.97;;
11524;SDS011;5819;49.648;8.330;2023-04-27T06:21:40;10.40;;;6.30;;
11524;SDS011;5819;49.648;8.330;2023-04-27T06:24:08;9.95;;;6.57;;
11524;SDS011;5819;49.648;8.330;2023-04-27T06:26:36;10.20;;;6.30;;
11524;SDS011;5819;49.648;8.330;2023-04-27T06:29:04;13.27;;;6.22;;
11524;SDS011;5819;49.648;8.330;2023-04-27T06:31:33;9.55;;;6.32;;
11524;SDS011;5819;49.648;8.330;2023-04-27T06:34:01;10.48;;;6.45;;
11524;SDS011;5819;49.648;8.330;2023-04-27T06:36:30;13.18;;;6.60;;
11524;SDS011;5819;49.648;8.330;2023-04-27T06:38:58;9.95;;;6.85;;
11524;SDS011;5819;49.648;8.330;2023-04-27T06:41:27;9.68;;;6.30;;
11524;SDS011;5819;49.648;8.330;2023-04-27T06:43:55;8.80;;;6.18;;
11524;SDS011;5819;49.648;8.330;2023-04-27T06:46:24;11.85;;;6.18;;
11524;SDS011;5819;49.648;8.330;2023-04-27T06:48:52;10.25;;;5.97;;
11524;SDS011;5819;49.648;8.330;2023-04-27T06:51:20;12.68;;;5.68;;
11524;SDS011;5819;49.648;8.330;2023-04-27T06:53:49;9.88;;;5.72;;
11524;SDS011;5819;49.648;8.330;2023-04-27T06:56:18;9.10;;;5.55;;
11524;SDS011;5819;49.648;8.330;2023-04-27T06:58:46;10.05;;;5.57;;
11524;SDS011;5819;49.648;8.330;2023-04-27T07:01:14;14.20;;;5.78;;
11524;SDS011;5819;49.648;8.330;2023-04-27T07:03:42;10.05;;;5.85;;
11524;SDS011;5819;49.648;8.330;2023-04-27T07:06:10;10.32;;;6.10;;
11524;SDS011;5819;49.648;8.330;2023-04-27T07:08:39;8.35;;;5.25;;
11524;SDS011;5819;49.648;8.330;2023-04-27T07:11:08;8.77;;;5.78;;
11524;SDS011;5819;49.648;8.330;2023-04-27T07:13:36;10.40;;;5.78;;
11524;SDS011;5819;49.648;8.330;2023-04-27T07:16:04;9.52;;;5.25;;
11524;SDS011;5819;49.648;8.330;2023-04-27T07:18:32;8.80;;;4.88;;
11524;SDS011;5819;49.648;8.330;2023-04-27T07:21:01;6.75;;;5.82;;
11524;SDS011;5819;49.648;8.330;2023-04-27T07:23:29;9.10;;;5.53;;
11524;SDS011;5819;49.648;8.330;2023-04-27T07:25:58;10.90;;;6.35;;
11524;SDS011;5819;49.648;8.330;2023-04-27T07:28:28;11.35;;;5.38;;
11524;SDS011;5819;49.648;8.330;2023-04-27T07:30:57;7.82;;;5.30;;
11524;SDS011;5819;49.648;8.330;2023-04-27T07:33:25;7.43;;;5.50;;
11524;SDS011;5819;49.648;8.330;2023-04-27T07:35:53;10.05;;;6.05;;
11524;SDS011;5819;49.648;8.330;2023-04-27T07:38:22;7.82;;;4.93;;
11524;SDS011;5819;49.648;8.330;2023-04-27T07:40:50;7.03;;;5.13;;
11524;SDS011;5819;49.648;8.330;2023-04-27T07:43:19;10.25;;;5.40;;
11524;SDS011;5819;49.648;8.330;2023-04-27T07:45:50;6.55;;;4.97;;
11524;SDS011;5819;49.648;8.330;2023-04-27T07:48:19;8.57;;;5.50;;
11524;SDS011;5819;49.648;8.330;2023-04-27T07:50:47;7.20;;;5.35;;
11524;SDS011;5819;49.648;8.330;2023-04-27T07:53:16;8.38;;;5.07;;
11524;SDS011;5819;49.648;8.330;2023-04-27T07:55:44;7.90;;;5.18;;
11524;SDS011;5819;49.648;8.330;2023-04-27T07:58:12;7.80;;;5.60;;
11524;SDS011;5819;49.648;8.330;2023-04-27T08:00:40;9.77;;;5.72;;
11524;SDS011;5819;49.648;8.330;2023-04-27T08:03:09;9.30;;;5.38;;
11524;SDS011;5819;49.648;8.330;2023-04-27T08:05:37;8.85;;;5.30;;
11524;SDS011;5819;49.648;8.330;2023-04-27T08:08:05;11.65;;;4.90;;
11524;SDS011;5819;49.648;8.330;2023-04-27T08:10:33;10.05;;;5.53;;
11524;SDS011;5819;49.648;8.330;2023-04-27T08:13:03;7.07;;;4.70;;
11524;SDS011;5819;49.648;8.330;2023-04-27T08:15:35;8.15;;;4.72;;
11524;SDS011;5819;49.648;8.330;2023-04-27T08:18:04;9.55;;;4.57;;
11524;SDS011;5819;49.648;8.330;2023-04-27T08:20:33;7.43;;;4.88;;
11524;SDS011;5819;49.648;8.330;2023-04-27T08:23:01;10.40;;;4.60;;
11524;SDS011;5819;49.648;8.330;2023-04-27T08:25:29;11.15;;;4.97;;
11524;SDS011;5819;49.648;8.330;2023-04-27T08:27:57;6.93;;;4.40;;
11524;SDS011;5819;49.648;8.330;2023-04-27T08:30:24;11.13;;;4.85;;
11524;SDS011;5819;49.648;8.330;2023-04-27T08:32:52;5.32;;;4.13;;
11524;SDS011;5819;49.648;8.330;2023-04-27T08:35:21;7.20;;;4.20;;
11524;SDS011;5819;49.648;8.330;2023-04-27T08:37:50;9.70;;;4.10;;
11524;SDS011;5819;49.648;8.330;2023-04-27T08:40:19;8.07;;;4.15;;
11524;SDS011;5819;49.648;8.330;2023-04-27T08:42:53;8.48;;;4.00;;
11524;SDS011;5819;49.648;8.330;2023-04-27T08:45:22;8.00;;;4.40;;
11524;SDS011;5819;49.648;8.330;2023-04-27T08:47:51;8.95;;;4.00;;
11524;SDS011;5819;49.648;8.330;2023-04-27T08:50:19;8.45;;;3.63;;
11524;SDS011;5819;49.648;8.330;2023-04-27T08:52:50;9.60;;;3.97;;
11524;SDS011;5819;49.648;8.330;2023-04-27T08:55:19;10.25;;;4.05;;
11524;SDS011;5819;49.648;8.330;2023-04-27T08:57:54;9.25;;;4.20;;
11524;SDS011;5819;49.648;8.330;2023-04-27T09:00:22;9.23;;;4.55;;
11524;SDS011;5819;49.648;8.330;2023-04-27T09:02:51;7.63;;;4.28;;
11524;SDS011;5819;49.648;8.330;2023-04-27T09:05:20;8.32;;;4.53;;
11524;SDS011;5819;49.648;8.330;2023-04-27T09:07:57;8.65;;;4.53;;
11524;SDS011;5819;49.648;8.330;2023-04-27T09:10:27;9.13;;;4.45;;
11524;SDS011;5819;49.648;8.330;2023-04-27T09:12:56;7.45;;;4.72;;
11524;SDS011;5819;49.648;8.330;2023-04-27T09:15:24;7.72;;;4.38;;
11524;SDS011;5819;49.648;8.330;2023-04-27T09:17:53;8.32;;;4.45;;
11524;SDS011;5819;49.648;8.330;2023-04-27T09:20:22;11.13;;;4.97;;
11524;SDS011;5819;49.648;8.330;2023-04-27T09:22:52;6.97;;;4.38;;
11524;SDS011;5819;49.648;8.330;2023-04-27T09:25:23;6.53;;;4.38;;
11524;SDS011;5819;49.648;8.330;2023-04-27T09:27:51;9.35;;;4.53;;
11524;SDS011;5819;49.648;8.330;2023-04-27T09:30:19;7.63;;;5.03;;
11524;SDS011;5819;49.648;8.330;2023-04-27T09:32:51;9.15;;;4.93;;
11524;SDS011;5819;49.648;8.330;2023-04-27T09:35:20;9.43;;;4.90;;
11524;SDS011;5819;49.648;8.330;2023-04-27T09:37:49;8.75;;;5.05;;
11524;SDS011;5819;49.648;8.330;2023-04-27T09:40:18;9.00;;;5.07;;
11524;SDS011;5819;49.648;8.330;2023-04-27T09:42:50;6.97;;;4.63;;
11524;SDS011;5819;49.648;8.330;2023-04-27T09:45:18;9.38;;;4.65;;
11524;SDS011;5819;49.648;8.330;2023-04-27T09:47:47;11.63;;;5.28;;
11524;SDS011;5819;49.648;8.330;2023-04-27T09:50:15;8.50;;;5.18;;
11524;SDS011;5819;49.648;8.330;2023-04-27T09:52:44;11.18;;;4.70;;
11524;SDS011;5819;49.648;8.330;2023-04-27T09:55:14;14.73;;;6.05;;
11524;SDS011;5819;49.648;8.330;2023-04-27T09:57:49;9.70;;;6.00;;
11524;SDS011;5819;49.648;8.330;2023-04-27T10:00:31;9.10;;;4.57;;
11524;SDS011;5819;49.648;8.330;2023-04-27T10:03:14;10.35;;;5.25;;
11524;SDS011;5819;49.648;8.330;2023-04-27T10:05:55;11.40;;;4.80;;
11524;SDS011;5819;49.648;8.330;2023-04-27T10:08:44;11.63;;;4.68;;
11524;SDS011;5819;49.648;8.330;2023-04-27T10:11:12;9.52;;;4.65;;
11524;SDS011;5819;49.648;8.330;2023-04-27T10:13:50;7.50;;;4.75;;
11524;SDS011;5819;49.648;8.330;2023-04-27T10:16:20;8.10;;;4.63;;
11524;SDS011;5819;49.648;8.330;2023-04-27T10:18:53;6.95;;;4.63;;
11524;SDS011;5819;49.648;8.330;2023-04-27T10:21:22;7.95;;;4.78;;
11524;SDS011;5819;49.648;8.330;2023-04-27T10:23:50;8.75;;;4.53;;
11524;SDS011;5819;49.648;8.330;2023-04-27T10:26:22;8.63;;;4.80;;
11524;SDS011;5819;49.648;8.330;2023-04-27T10:28:59;7.82;;;4.57;;
11524;SDS011;5819;49.648;8.330;2023-04-27T10:31:32;10.18;;;4.93;;
11524;SDS011;5819;49.648;8.330;2023-04-27T10:34:07;9.50;;;4.65;;
11524;SDS011;5819;49.648;8.330;2023-04-27T10:36:35;9.45;;;5.18;;
11524;SDS011;5819;49.648;8.330;2023-04-27T10:39:15;10.45;;;4.82;;
11524;SDS011;5819;49.648;8.330;2023-04-27T10:41:53;11.00;;;5.50;;
11524;SDS011;5819;49.648;8.330;2023-04-27T10:44:25;8.98;;;4.75;;
11524;SDS011;5819;49.648;8.330;2023-04-27T10:46:55;7.75;;;4.68;;
11524;SDS011;5819;49.648;8.330;2023-04-27T10:49:25;11.80;;;5.32;;
11524;SDS011;5819;49.648;8.330;2023-04-27T10:51:55;7.32;;;4.95;;
11524;SDS011;5819;49.648;8.330;2023-04-27T10:54:25;7.72;;;5.15;;
11524;SDS011;5819;49.648;8.330;2023-04-27T10:57:00;10.00;;;5.65;;
11524;SDS011;5819;49.648;8.330;2023-04-27T10:59:30;9.10;;;4.55;;
11524;SDS011;5819;49.648;8.330;2023-04-27T11:01:58;6.10;;;4.78;;
11524;SDS011;5819;49.648;8.330;2023-04-27T11:04:36;6.88;;;4.70;;
11524;SDS011;5819;49.648;8.330;2023-04-27T11:07:05;6.78;;;4.80;;
11524;SDS011;5819;49.648;8.330;2023-04-27T11:09:34;12.63;;;5.05;;
11524;SDS011;5819;49.648;8.330;2023-04-27T11:12:05;9.80;;;5.47;;
11524;SDS011;5819;49.648;8.330;2023-04-27T11:14:35;9.25;;;5.28;;
11524;SDS011;5819;49.648;8.330;2023-04-27T11:17:03;8.18;;;5.15;;
11524;SDS011;5819;49.648;8.330;2023-04-27T11:19:32;12.57;;;4.82;;
11524;SDS011;5819;49.648;8.330;2023-04-27T11:22:10;7.97;;;4.97;;
11524;SDS011;5819;49.648;8.330;2023-04-27T11:24:44;10.77;;;4.18;;
11524;SDS011;5819;49.648;8.330;2023-04-27T11:27:13;11.07;;;4.85;;
11524;SDS011;5819;49.648;8.330;2023-04-27T11:29:43;7.50;;;3.92;;
11524;SDS011;5819;49.648;8.330;2023-04-27T11:32:17;7.45;;;4.53;;
11524;SDS011;5819;49.648;8.330;2023-04-27T11:34:49;11.57;;;4.47;;
11524;SDS011;5819;49.648;8.330;2023-04-27T11:37:20;6.43;;;4.25;;
11524;SDS011;5819;49.648;8.330;2023-04-27T11:39:50;5.25;;;3.58;;
11524;SDS011;5819;49.648;8.330;2023-04-27T11:42:20;9.93;;;3.30;;
11524;SDS011;5819;49.648;8.330;2023-04-27T11:44:51;6.15;;;3.30;;
11524;SDS011;5819;49.648;8.330;2023-04-27T11:47:20;6.45;;;3.50;;
11524;SDS011;5819;49.648;8.330;2023-04-27T11:49:50;6.80;;;3.97;;
11524;SDS011;5819;49.648;8.330;2023-04-27T11:52:18;7.57;;;4.28;;
11524;SDS011;5819;49.648;8.330;2023-04-27T11:54:47;6.13;;;3.45;;
11524;SDS011;5819;49.648;8.330;2023-04-27T11:57:16;7.57;;;3.80;;
11524;SDS011;5819;49.648;8.330;2023-04-27T11:59:52;6.10;;;3.28;;
11524;SDS011;5819;49.648;8.330;2023-04-27T12:02:21;8.90;;;3.78;;
11524;SDS011;5819;49.648;8.330;2023-04-27T12:04:50;5.97;;;3.70;;
11524;SDS011;5819;49.648;8.330;2023-04-27T12:07:18;6.00;;;3.33;;
11524;SDS011;5819;49.648;8.330;2023-04-27T12:09:47;9.00;;;3.90;;
11524;SDS011;5819;49.648;8.330;2023-04-27T12:12:15;6.70;;;3.70;;
11524;SDS011;5819;49.648;8.330;2023-04-27T12:14:43;7.03;;;3.63;;
11524;SDS011;5819;49.648;8.330;2023-04-27T12:17:13;5.25;;;3.40;;
11524;SDS011;5819;49.648;8.330;2023-04-27T12:19:40;4.40;;;3.08;;
11524;SDS011;5819;49.648;8.330;2023-04-27T12:22:08;9.32;;;3.85;;
11524;SDS011;5819;49.648;8.330;2023-04-27T12:24:36;4.22;;;3.20;;
11524;SDS011;5819;49.648;8.330;2023-04-27T12:27:04;5.07;;;3.20;;
11524;SDS011;5819;49.648;8.330;2023-04-27T12:29:32;7.88;;;3.50;;
11524;SDS011;5819;49.648;8.330;2023-04-27T12:32:00;10.00;;;3.53;;
11524;SDS011;5819;49.648;8.330;2023-04-27T12:34:29;9.13;;;3.50;;
11524;SDS011;5819;49.648;8.330;2023-04-27T12:36:57;6.53;;;3.63;;
11524;SDS011;5819;49.648;8.330;2023-04-27T12:39:26;6.85;;;3.28;;
11524;SDS011;5819;49.648;8.330;2023-04-27T12:41:55;5.15;;;3.05;;
11524;SDS011;5819;49.648;8.330;2023-04-27T12:44:24;6.00;;;3.40;;
11524;SDS011;5819;49.648;8.330;2023-04-27T12:46:52;6.70;;;3.30;;
11524;SDS011;5819;49.648;8.330;2023-04-27T12:49:20;6.90;;;3.55;;
11524;SDS011;5819;49.648;8.330;2023-04-27T12:51:49;6.88;;;3.75;;
11524;SDS011;5819;49.648;8.330;2023-04-27T12:54:17;6.00;;;3.45;;
11524;SDS011;5819;49.648;8.330;2023-04-27T12:56:45;9.80;;;3.85;;
11524;SDS011;5819;49.648;8.330;2023-04-27T12:59:13;10.02;;;4.82;;
11524;SDS011;5819;49.648;8.330;2023-04-27T13:01:42;8.98;;;4.20;;
11524;SDS011;5819;49.648;8.330;2023-04-27T13:04:16;7.68;;;4.40;;
11524;SDS011;5819;49.648;8.330;2023-04-27T13:06:46;6.35;;;3.67;;
11524;SDS011;5819;49.648;8.330;2023-04-27T13:09:15;7.78;;;3.83;;
11524;SDS011;5819;49.648;8.330;2023-04-27T13:11:43;8.95;;;3.55;;
11524;SDS011;5819;49.648;8.330;2023-04-27T13:14:11;4.97;;;3.28;;
11524;SDS011;5819;49.648;8.330;2023-04-27T13:16:40;7.15;;;3.42;;
11524;SDS011;5819;49.648;8.330;2023-04-27T13:19:09;5.65;;;3.55;;
11524;SDS011;5819;49.648;8.330;2023-04-27T13:21:36;8.93;;;3.35;;
11524;SDS011;5819;49.648;8.330;2023-04-27T13:24:04;6.00;;;3.70;;
11524;SDS011;5819;49.648;8.330;2023-04-27T13:26:34;9.43;;;3.80;;
11524;SDS011;5819;49.648;8.330;2023-04-27T13:29:03;13.27;;;3.92;;
11524;SDS011;5819;49.648;8.330;2023-04-27T13:31:31;8.85;;;3.90;;
11524;SDS011;5819;49.648;8.330;2023-04-27T13:33:59;5.18;;;3.58;;
11524;SDS011;5819;49.648;8.330;2023-04-27T13:36:29;6.45;;;3.85;;
11524;SDS011;5819;49.648;8.330;2023-04-27T13:38:57;9.20;;;4.55;;
11524;SDS011;5819;49.648;8.330;2023-04-27T13:41:25;8.57;;;4.25;;
11524;SDS011;5819;49.648;8.330;2023-04-27T13:43:54;7.32;;;4.07;;
11524;SDS011;5819;49.648;8.330;2023-04-27T13:46:22;8.80;;;4.60;;
11524;SDS011;5819;49.648;8.330;2023-04-27T13:48:50;6.50;;;3.95;;
11524;SDS011;5819;49.648;8.330;2023-04-27T13:51:18;9.15;;;4.60;;
11524;SDS011;5819;49.648;8.330;2023-04-27T13:53:46;6.90;;;4.60;;
11524;SDS011;5819;49.648;8.330;2023-04-27T13:56:14;9.32;;;4.97;;
11524;SDS011;5819;49.648;8.330;2023-04-27T13:58:42;11.82;;;4.60;;
11524;SDS011;5819;49.648;8.330;2023-04-27T14:01:11;9.23;;;4.90;;
11524;SDS011;5819;49.648;8.330;2023-04-27T14:03:39;8.05;;;5.28;;
11524;SDS011;5819;49.648;8.330;2023-04-27T14:06:09;8.57;;;4.75;;
11524;SDS011;5819;49.648;8.330;2023-04-27T14:08:36;8.82;;;5.07;;
11524;SDS011;5819;49.648;8.330;2023-04-27T14:11:04;7.20;;;5.03;;
11524;SDS011;5819;49.648;8.330;2023-04-27T14:13:33;8.88;;;4.13;;
11524;SDS011;5819;49.648;8.330;2023-04-27T14:16:00;6.25;;;4.22;;
11524;SDS011;5819;49.648;8.330;2023-04-27T14:18:30;6.95;;;3.75;;
11524;SDS011;5819;49.648;8.330;2023-04-27T14:20:58;6.60;;;3.60;;
11524;SDS011;5819;49.648;8.330;2023-04-27T14:23:26;7.63;;;3.72;;
11524;SDS011;5819;49.648;8.330;2023-04-27T14:25:54;8.98;;;3.65;;
11524;SDS011;5819;49.648;8.330;2023-04-27T14:28:22;6.85;;;4.25;;
11524;SDS011;5819;49.648;8.330;2023-04-27T14:30:50;6.60;;;3.55;;
11524;SDS011;5819;49.648;8.330;2023-04-27T14:33:18;5.97;;;3.45;;
11524;SDS011;5819;49.648;8.330;2023-04-27T14:35:47;6.15;;;3.42;;
11524;SDS011;5819;49.648;8.330;2023-04-27T14:38:15;5.28;;;3.20;;
11524;SDS011;5819;49.648;8.330;2023-04-27T14:40:43;6.90;;;3.65;;
11524;SDS011;5819;49.648;8.330;2023-04-27T14:43:11;6.13;;;3.47;;
11524;SDS011;5819;49.648;8.330;2023-04-27T14:45:38;5.65;;;3.10;;
11524;SDS011;5819;49.648;8.330;2023-04-27T14:48:20;7.68;;;3.42;;
11524;SDS011;5819;49.648;8.330;2023-04-27T14:50:52;6.82;;;2.92;;
11524;SDS011;5819;49.648;8.330;2023-04-27T14:53:20;4.32;;;3.38;;
11524;SDS011;5819;49.648;8.330;2023-04-27T14:55:48;4.13;;;3.30;;
11524;SDS011;5819;49.648;8.330;2023-04-27T14:58:16;7.20;;;3.53;;
11524;SDS011;5819;49.648;8.330;2023-04-27T15:00:44;4.38;;;3.42;;
11524;SDS011;5819;49.648;8.330;2023-04-27T15:03:12;4.53;;;2.90;;
11524;SDS011;5819;49.648;8.330;2023-04-27T15:05:40;9.95;;;3.65;;
11524;SDS011;5819;49.648;8.330;2023-04-27T15:08:09;5.90;;;3.08;;
11524;SDS011;5819;49.648;8.330;2023-04-27T15:10:37;5.18;;;3.70;;